Cumari, Brazil
Current Conditions -  °F | °C
As of 5:49 PM on Wednesday 17 Dec 2014 (Local Time) from SBUL Reporting Station
Thunderstorm Thunderstorm  
Wind Chill: 73°   Ceiling: Unl
Heat Index: 73°   Visibility: 6mi
Dew Point: 63°   Wind: 23mph
Humidity: 69%   Direction: 230°SW
Pressure: 29.91"   Gusts: NA
Location:  18.26°S, 48.15°W
Report Text: SBUL 171949Z 23020KT 9000 4000SW +TSRA SCT040 FEW045CB 23/17 Q1013
Loading
Personal Weather Stations






























Interactive Weather Map New forecast layout! Learn more

10-Day Weather Forecast

Advertisements
Track Severe Weather on mobile